createdAt,value
2019-01-11T00:00:21.399Z,163.00
2019-01-11T00:02:50.758Z,179.80
2019-01-11T00:05:18.215Z,164.00
2019-01-11T00:07:45.692Z,173.47
2019-01-11T00:10:13.280Z,171.37
2019-01-11T00:12:40.783Z,177.30
2019-01-11T00:15:08.458Z,168.93
2019-01-11T00:17:35.990Z,175.97
2019-01-11T00:20:05.245Z,172.47
2019-01-11T00:22:32.738Z,186.53
2019-01-11T00:25:00.204Z,169.97
2019-01-11T00:27:27.855Z,178.53
2019-01-11T00:29:55.494Z,170.87
2019-01-11T00:32:22.916Z,184.07
2019-01-11T00:34:55.529Z,164.77
2019-01-11T00:37:23.187Z,189.90
2019-01-11T00:39:52.716Z,175.40
2019-01-11T00:42:20.254Z,182.83
2019-01-11T00:44:47.746Z,178.37
2019-01-11T00:47:15.578Z,185.20
2019-01-11T00:49:43.097Z,160.63
2019-01-11T00:52:10.749Z,180.70
2019-01-11T00:54:38.327Z,173.97
2019-01-11T00:57:05.966Z,173.53
2019-01-11T00:59:33.479Z,171.77
2019-01-11T01:02:01.131Z,166.17
2019-01-11T01:04:28.609Z,165.40
2019-01-11T01:06:56.106Z,169.83
2019-01-11T01:09:23.619Z,169.50
2019-01-11T01:11:51.364Z,173.37
2019-01-11T01:14:18.967Z,165.97
2019-01-11T01:16:46.472Z,158.10
2019-01-11T01:19:19.893Z,165.80
2019-01-11T01:24:40.322Z,172.10
2019-01-11T01:27:07.882Z,184.90
2019-01-11T01:29:35.443Z,175.60
2019-01-11T01:32:03.205Z,179.80
2019-01-11T01:34:30.690Z,179.23
2019-01-11T01:36:58.289Z,190.00
2019-01-11T01:39:25.877Z,171.73
2019-01-11T01:41:53.412Z,169.77
2019-01-11T01:44:21.091Z,174.67
2019-01-11T01:46:48.933Z,171.70
2019-01-11T01:49:16.316Z,170.73
2019-01-11T01:51:43.967Z,165.47
2019-01-11T01:54:13.077Z,175.27
2019-01-11T01:56:41.445Z,196.30
2019-01-11T01:59:08.977Z,176.00
2019-01-11T02:01:36.550Z,171.47
2019-01-11T02:04:04.351Z,182.37
2019-01-11T02:06:31.950Z,177.90
2019-01-11T02:08:59.611Z,172.40
2019-01-11T02:11:27.324Z,180.63
2019-01-11T02:13:54.700Z,171.20
2019-01-11T02:16:25.099Z,174.27
2019-01-11T02:18:52.706Z,178.50
2019-01-11T02:21:20.414Z,164.87
2019-01-11T02:23:50.137Z,162.13
2019-01-11T02:26:17.659Z,173.10
2019-01-11T02:28:45.248Z,172.03
2019-01-11T02:31:12.784Z,173.03
2019-01-11T02:33:40.173Z,169.93
2019-01-11T02:36:07.832Z,175.90
2019-01-11T02:38:35.384Z,179.37
2019-01-11T02:41:03.150Z,169.73
2019-01-11T02:43:30.645Z,172.37
2019-01-11T02:45:58.160Z,171.07
2019-01-11T02:48:25.851Z,170.60
2019-01-11T02:50:53.282Z,176.03
2019-01-11T02:53:20.704Z,178.90
2019-01-11T02:55:48.302Z,174.57
2019-01-11T02:58:15.787Z,189.13
2019-01-11T03:00:43.412Z,170.87
2019-01-11T03:03:11.794Z,168.67
2019-01-11T03:05:39.416Z,171.57
2019-01-11T03:08:06.862Z,178.07
2019-01-11T03:10:35.090Z,170.43
2019-01-11T03:13:02.858Z,168.90
2019-01-11T03:15:31.337Z,172.37
2019-01-11T03:17:58.913Z,181.07
2019-01-11T03:20:26.549Z,169.27
2019-01-11T03:22:54.043Z,172.53
2019-01-11T03:25:21.575Z,173.83
2019-01-11T03:27:51.063Z,199.30
2019-01-11T03:30:19.720Z,166.70
2019-01-11T03:32:47.502Z,200.73
2019-01-11T03:35:16.193Z,175.20
2019-01-11T03:37:47.005Z,177.27
2019-01-11T03:40:16.027Z,155.63
2019-01-11T03:42:43.611Z,170.80
2019-01-11T03:45:14.591Z,162.90
2019-01-11T03:47:42.362Z,172.23
2019-01-11T03:50:10.497Z,164.57
2019-01-11T03:52:38.236Z,172.77
2019-01-11T03:55:08.355Z,162.77
2019-01-11T03:57:36.167Z,169.77
2019-01-11T04:00:10.595Z,169.70
2019-01-11T04:02:38.212Z,161.03
2019-01-11T04:05:06.475Z,157.83
2019-01-11T04:07:34.128Z,170.13
2019-01-11T04:10:01.599Z,151.60
2019-01-11T04:12:28.984Z,171.00
2019-01-11T04:14:56.614Z,158.73
2019-01-11T04:17:24.094Z,169.20
2019-01-11T04:19:51.689Z,164.20
2019-01-11T04:22:25.748Z,166.13
2019-01-11T04:25:12.754Z,158.10
2019-01-11T04:27:40.840Z,169.00
2019-01-11T04:30:14.416Z,157.13
2019-01-11T04:32:41.848Z,167.70
2019-01-11T04:35:09.741Z,164.53
2019-01-11T04:37:37.435Z,173.83
2019-01-11T04:40:05.678Z,164.90
2019-01-11T04:42:33.031Z,177.40
2019-01-11T04:45:00.482Z,162.83
2019-01-11T04:47:27.835Z,160.17
2019-01-11T04:49:55.317Z,155.53
2019-01-11T04:52:22.736Z,170.90
2019-01-11T04:54:50.215Z,162.07
2019-01-11T04:57:17.566Z,160.17
2019-01-11T04:59:45.152Z,160.47
2019-01-11T05:02:12.861Z,165.20
2019-01-11T05:04:40.481Z,153.13
2019-01-11T05:07:07.920Z,168.77
2019-01-11T05:09:35.372Z,157.33
2019-01-11T05:12:03.021Z,152.13
2019-01-11T05:14:30.574Z,146.53
2019-01-11T05:16:58.104Z,156.73
2019-01-11T05:19:25.964Z,154.07
2019-01-11T05:21:53.358Z,155.93
2019-01-11T05:24:24.582Z,171.83
2019-01-11T05:26:52.655Z,150.90
2019-01-11T05:29:20.025Z,156.50
2019-01-11T05:31:47.493Z,155.13
2019-01-11T05:34:14.845Z,161.00
2019-01-11T05:36:42.378Z,149.50
2019-01-11T05:39:10.001Z,150.93
2019-01-11T05:41:37.394Z,146.37
2019-01-11T05:44:05.300Z,150.43
2019-01-11T05:46:32.739Z,146.90
2019-01-11T05:49:00.381Z,152.10
2019-01-11T05:51:27.742Z,150.50
2019-01-11T05:53:55.208Z,152.33
2019-01-11T05:56:22.862Z,155.27
2019-01-11T05:58:56.524Z,149.40
2019-01-11T06:01:23.991Z,156.53
2019-01-11T06:03:51.584Z,149.93
2019-01-11T06:06:18.890Z,158.43
2019-01-11T06:08:46.233Z,147.30
2019-01-11T06:11:13.627Z,147.87
2019-01-11T06:13:41.106Z,147.50
2019-01-11T06:16:08.845Z,140.83
2019-01-11T06:18:36.365Z,140.60
2019-01-11T06:21:04.051Z,149.40
2019-01-11T06:23:31.570Z,153.40
2019-01-11T06:26:02.015Z,140.10
2019-01-11T06:28:29.347Z,145.20
2019-01-11T06:30:56.951Z,158.00
2019-01-11T06:33:25.299Z,145.33
2019-01-11T06:35:52.772Z,145.27
2019-01-11T06:38:20.599Z,150.40
2019-01-11T06:40:48.145Z,147.13
2019-01-11T06:43:15.579Z,154.17
2019-01-11T06:45:43.950Z,148.63
2019-01-11T06:48:26.341Z,152.47
2019-01-11T06:50:53.720Z,142.13
2019-01-11T06:53:21.582Z,145.20
2019-01-11T06:55:48.951Z,144.23
2019-01-11T06:58:17.051Z,148.73
2019-01-11T07:00:44.451Z,152.50
2019-01-11T07:03:11.926Z,162.80
2019-01-11T07:05:42.068Z,146.63
2019-01-11T07:08:09.864Z,144.50
2019-01-11T07:10:38.871Z,139.60
2019-01-11T07:13:06.750Z,143.77
2019-01-11T07:15:35.242Z,141.30
2019-01-11T07:18:03.009Z,162.87
2019-01-11T07:20:32.361Z,151.30
2019-01-11T07:23:00.010Z,152.57
2019-01-11T07:25:27.454Z,168.53
2019-01-11T07:28:00.320Z,158.37
2019-01-11T07:30:37.035Z,165.20
2019-01-11T07:33:06.435Z,159.33
2019-01-11T07:35:53.640Z,149.87
2019-01-11T07:38:22.000Z,150.97
2019-01-11T07:40:49.486Z,154.37
2019-01-11T07:43:16.872Z,156.63
2019-01-11T07:45:44.865Z,147.77
2019-01-11T07:48:15.875Z,146.83
2019-01-11T07:50:49.284Z,141.17
2019-01-11T07:53:14.651Z,155.03
2019-01-11T07:55:42.168Z,146.93
2019-01-11T07:58:09.550Z,154.67
2019-01-11T08:00:36.991Z,149.10
2019-01-11T08:03:04.608Z,161.23
2019-01-11T08:05:32.023Z,149.80
2019-01-11T08:07:59.697Z,150.23
2019-01-11T08:10:27.336Z,155.73
2019-01-11T08:12:54.845Z,160.23
2019-01-11T08:15:23.887Z,149.10
2019-01-11T08:17:51.641Z,162.83
2019-01-11T08:20:20.726Z,148.43
2019-01-11T08:22:48.514Z,159.47
2019-01-11T08:25:16.497Z,143.43
2019-01-11T08:27:44.464Z,164.77
2019-01-11T08:30:13.519Z,147.57
2019-01-11T08:32:41.110Z,159.07
2019-01-11T08:35:09.567Z,149.63
2019-01-11T08:37:37.052Z,165.10
2019-01-11T08:40:05.981Z,144.67
2019-01-11T08:42:33.786Z,161.67
2019-01-11T08:45:01.473Z,147.87
2019-01-11T08:47:29.050Z,160.87
2019-01-11T08:49:56.555Z,153.37
2019-01-11T08:52:23.986Z,159.23
2019-01-11T08:54:51.524Z,150.57
2019-01-11T08:57:19.031Z,166.90
2019-01-11T08:59:46.369Z,170.13
2019-01-11T09:02:13.821Z,161.13
2019-01-11T09:04:41.972Z,164.87
2019-01-11T09:07:09.885Z,159.20
2019-01-11T09:09:37.373Z,172.07
2019-01-11T09:12:04.927Z,151.47
2019-01-11T09:14:48.171Z,168.93
2019-01-11T09:17:16.928Z,174.03
2019-01-11T09:19:44.456Z,156.77
2019-01-11T09:22:12.062Z,166.03
2019-01-11T09:24:40.529Z,157.40
2019-01-11T09:27:08.031Z,168.70
2019-01-11T09:29:35.417Z,155.47
2019-01-11T09:32:03.214Z,160.50
2019-01-11T09:34:30.547Z,162.47
2019-01-11T09:36:58.074Z,153.67
2019-01-11T09:39:26.758Z,164.50
2019-01-11T09:41:54.101Z,157.77
2019-01-11T09:44:21.596Z,165.03
2019-01-11T09:46:49.220Z,168.40
2019-01-11T09:49:16.643Z,164.17
2019-01-11T09:51:45.488Z,156.77
2019-01-11T09:54:13.062Z,179.40
2019-01-11T09:56:40.711Z,159.87
2019-01-11T09:59:08.090Z,159.00
2019-01-11T10:01:35.442Z,156.30
2019-01-11T10:04:03.137Z,161.17
2019-01-11T10:06:32.553Z,159.67
2019-01-11T10:08:59.909Z,159.73
2019-01-11T10:11:27.452Z,161.47
2019-01-11T10:13:54.893Z,161.00
2019-01-11T10:16:23.789Z,165.00
2019-01-11T10:18:51.204Z,165.03
2019-01-11T10:21:22.135Z,154.00
2019-01-11T10:23:47.953Z,153.60
2019-01-11T10:26:15.487Z,153.00
2019-01-11T10:28:42.853Z,155.27
2019-01-11T10:31:10.442Z,161.77
2019-01-11T10:33:37.758Z,149.30
2019-01-11T10:36:05.605Z,152.40
2019-01-11T10:38:33.008Z,148.83
2019-01-11T10:41:05.424Z,147.90
2019-01-11T10:43:33.051Z,155.10
2019-01-11T10:46:02.284Z,151.27
2019-01-11T10:48:29.740Z,153.87
2019-01-11T10:50:57.370Z,151.57
2019-01-11T10:53:24.972Z,153.50
2019-01-11T10:55:52.800Z,153.63
2019-01-11T10:58:20.350Z,155.53
2019-01-11T11:00:48.042Z,149.97
2019-01-11T11:03:15.395Z,157.63
2019-01-11T11:05:42.919Z,165.57
2019-01-11T11:08:10.651Z,159.50
2019-01-11T11:10:38.079Z,144.07
2019-01-11T11:13:05.660Z,187.27
2019-01-11T11:15:33.119Z,167.47
2019-01-11T11:18:00.648Z,169.17
2019-01-11T11:20:28.002Z,171.13
2019-01-11T11:22:55.473Z,187.00
2019-01-11T11:25:22.984Z,177.57
2019-01-11T11:27:50.318Z,191.53
2019-01-11T11:30:19.748Z,166.33
2019-01-11T11:32:57.742Z,174.83
2019-01-11T11:35:26.977Z,175.00
2019-01-11T11:37:54.759Z,184.30
2019-01-11T11:40:22.663Z,166.30
2019-01-11T11:42:50.045Z,175.10
2019-01-11T11:45:17.614Z,169.27
2019-01-11T11:47:47.180Z,187.77
2019-01-11T11:50:14.783Z,157.83
2019-01-11T11:52:42.333Z,175.67
2019-01-11T11:55:10.076Z,163.50
2019-01-11T11:57:38.588Z,167.20
2019-01-11T12:00:11.032Z,156.40
2019-01-11T12:02:38.628Z,160.80
2019-01-11T12:05:06.430Z,166.03
2019-01-11T12:07:33.800Z,168.13
2019-01-11T12:10:01.569Z,158.33
2019-01-11T12:12:28.919Z,164.00
2019-01-11T12:14:58.382Z,172.57
2019-01-11T12:17:26.015Z,169.30
2019-01-11T12:19:57.041Z,164.77
2019-01-11T12:22:22.747Z,179.87
2019-01-11T12:24:50.151Z,161.80
2019-01-11T12:27:18.495Z,174.43
2019-01-11T12:29:45.886Z,158.20
2019-01-11T12:32:19.424Z,176.50
2019-01-11T12:34:42.684Z,156.93
2019-01-11T12:37:10.023Z,175.53
2019-01-11T12:39:37.349Z,169.40
2019-01-11T12:42:04.900Z,168.73
2019-01-11T12:44:32.243Z,162.80
2019-01-11T12:46:59.572Z,177.70
2019-01-11T12:49:28.702Z,158.37
2019-01-11T12:51:56.228Z,173.53
2019-01-11T12:54:23.843Z,162.40
2019-01-11T12:56:51.238Z,163.13
2019-01-11T12:59:18.557Z,178.33
2019-01-11T13:01:46.239Z,165.40
2019-01-11T13:04:13.718Z,157.03
2019-01-11T13:06:41.173Z,165.20
2019-01-11T13:09:08.651Z,169.20
2019-01-11T13:11:36.199Z,168.47
2019-01-11T13:14:03.888Z,170.77
2019-01-11T13:16:31.277Z,165.10
2019-01-11T13:18:58.819Z,169.90
2019-01-11T13:21:26.303Z,167.77
2019-01-11T13:23:53.639Z,164.33
2019-01-11T13:26:21.117Z,165.53
2019-01-11T13:28:48.655Z,170.07
2019-01-11T13:31:21.632Z,163.53
2019-01-11T13:33:49.071Z,170.93
2019-01-11T13:36:18.896Z,159.13
2019-01-11T13:38:46.640Z,165.57
2019-01-11T13:41:15.134Z,170.60
2019-01-11T13:43:42.576Z,171.97
2019-01-11T13:46:10.030Z,183.53
2019-01-11T13:48:37.603Z,178.47
2019-01-11T13:51:05.193Z,173.43
2019-01-11T13:53:35.345Z,173.23
2019-01-11T13:56:02.920Z,183.73
2019-01-11T13:58:30.494Z,171.80
2019-01-11T14:00:57.976Z,175.07
2019-01-11T14:03:25.347Z,172.13
2019-01-11T14:05:53.110Z,173.83
2019-01-11T14:08:20.595Z,183.37
2019-01-11T14:10:48.075Z,179.17
2019-01-11T14:13:15.958Z,169.43
2019-01-11T14:15:54.824Z,177.20
2019-01-11T14:18:23.145Z,187.00
2019-01-11T14:20:51.743Z,174.10
2019-01-11T14:23:19.934Z,176.27
2019-01-11T14:25:47.543Z,184.30
2019-01-11T14:28:15.180Z,184.03
2019-01-11T14:30:43.065Z,190.73
2019-01-11T14:33:10.789Z,194.57
2019-01-11T14:35:39.641Z,209.00
2019-01-11T14:38:07.332Z,195.77
2019-01-11T14:40:35.078Z,196.80
2019-01-11T14:43:04.250Z,201.63
2019-01-11T14:45:31.721Z,188.03
2019-01-11T14:47:59.147Z,206.97
2019-01-11T14:50:26.818Z,204.20
2019-01-11T14:52:54.918Z,202.23
2019-01-11T14:55:22.366Z,204.50
2019-01-11T14:57:49.895Z,207.67
2019-01-11T15:00:22.370Z,195.07
2019-01-11T15:02:50.181Z,205.23
2019-01-11T15:05:18.397Z,200.97
2019-01-11T15:07:46.312Z,216.00
2019-01-11T15:10:14.247Z,202.83
2019-01-11T15:12:44.687Z,202.13
2019-01-11T15:15:20.848Z,188.47
2019-01-11T15:17:49.170Z,207.27
2019-01-11T15:20:33.291Z,196.97
2019-01-11T15:23:13.589Z,191.43
2019-01-11T15:25:44.186Z,195.27
2019-01-11T15:28:11.812Z,203.03
2019-01-11T15:30:39.489Z,193.00
2019-01-11T15:33:07.655Z,197.17
2019-01-11T15:35:35.770Z,201.97
2019-01-11T15:38:03.777Z,193.50
2019-01-11T15:40:36.918Z,197.43
2019-01-11T15:43:04.089Z,196.37
2019-01-11T15:45:31.677Z,190.53
2019-01-11T15:47:59.057Z,202.27
2019-01-11T15:50:54.574Z,206.07
2019-01-11T15:53:23.073Z,190.37
2019-01-11T15:55:55.234Z,184.43
2019-01-11T15:58:29.070Z,203.07
2019-01-11T16:00:56.685Z,182.30
2019-01-11T16:03:25.036Z,187.10
2019-01-11T16:06:40.594Z,187.53
2019-01-11T16:09:59.786Z,187.87
2019-01-11T16:12:53.334Z,190.73
2019-01-11T16:16:04.109Z,185.07
2019-01-11T16:18:32.353Z,188.13
2019-01-11T16:21:00.300Z,205.53
2019-01-11T16:23:28.042Z,195.37
2019-01-11T16:25:55.710Z,175.43
2019-01-11T16:28:23.582Z,177.63
2019-01-11T16:30:51.053Z,185.17
2019-01-11T16:33:18.582Z,188.13
2019-01-11T16:35:45.975Z,196.03
2019-01-11T16:38:14.411Z,205.53
2019-01-11T16:40:41.945Z,199.87
2019-01-11T16:43:09.539Z,194.90
2019-01-11T16:45:37.090Z,220.70
2019-01-11T16:48:04.562Z,210.90
2019-01-11T16:50:33.065Z,197.77
2019-01-11T16:53:01.330Z,209.30
2019-01-11T16:55:28.873Z,200.33
2019-01-11T16:57:56.874Z,224.13
2019-01-11T17:00:24.979Z,225.33
2019-01-11T17:02:52.422Z,199.07
2019-01-11T17:05:19.876Z,204.33
2019-01-11T17:07:47.380Z,207.57
2019-01-11T17:10:14.965Z,198.90
2019-01-11T17:12:42.787Z,202.43
2019-01-11T17:15:14.565Z,212.43
2019-01-11T17:17:42.753Z,224.83
2019-01-11T17:20:14.477Z,226.87
2019-01-11T17:22:42.437Z,243.93
2019-01-11T17:25:10.130Z,207.20
2019-01-11T17:27:38.255Z,219.33
2019-01-11T17:30:11.629Z,217.07
2019-01-11T17:32:39.653Z,227.50
2019-01-11T17:35:07.457Z,213.70
2019-01-11T17:37:34.903Z,234.83
2019-01-11T17:40:04.148Z,245.00
2019-01-11T17:42:31.667Z,254.93
2019-01-11T17:44:59.054Z,223.33
2019-01-11T17:47:26.667Z,239.53
2019-01-11T17:50:00.943Z,220.60
2019-01-11T17:52:23.539Z,234.27
2019-01-11T17:54:53.768Z,233.57
2019-01-11T17:57:21.426Z,251.50
2019-01-11T17:59:49.170Z,231.63
2019-01-11T18:02:17.104Z,244.80
2019-01-11T18:04:44.640Z,241.27
2019-01-11T18:07:12.520Z,249.73
2019-01-11T18:09:40.497Z,238.10
2019-01-11T18:12:20.077Z,235.90
2019-01-11T18:14:47.312Z,241.60
2019-01-11T18:17:14.881Z,260.03
2019-01-11T18:19:42.528Z,241.97
2019-01-11T18:22:10.343Z,258.53
2019-01-11T18:24:38.397Z,241.53
2019-01-11T18:27:06.490Z,249.23
2019-01-11T18:29:33.860Z,239.43
2019-01-11T18:32:03.001Z,228.60
2019-01-11T18:34:31.308Z,229.10
2019-01-11T18:36:58.889Z,246.60
2019-01-11T18:39:26.550Z,255.43
2019-01-11T18:41:54.108Z,242.77
2019-01-11T18:44:21.749Z,235.33
2019-01-11T18:46:49.159Z,238.60
2019-01-11T18:49:16.720Z,240.27
2019-01-11T18:51:44.245Z,226.70
2019-01-11T18:54:11.902Z,248.33
2019-01-11T18:56:39.559Z,240.87
2019-01-11T18:59:07.021Z,213.23
2019-01-11T19:01:34.403Z,236.27
2019-01-11T19:04:02.115Z,252.27
2019-01-11T19:06:29.474Z,219.73
2019-01-11T19:08:56.846Z,228.40
2019-01-11T19:11:24.513Z,239.00
2019-01-11T19:13:52.054Z,251.60
2019-01-11T19:16:19.907Z,237.10
2019-01-11T19:18:47.535Z,253.07
2019-01-11T19:21:17.088Z,241.63
2019-01-11T19:23:44.633Z,230.63
2019-01-11T19:26:12.464Z,239.13
2019-01-11T19:28:40.340Z,256.80
2019-01-11T19:31:07.969Z,240.03
2019-01-11T19:33:35.860Z,244.77
2019-01-11T19:36:05.028Z,251.30
2019-01-11T19:38:33.559Z,254.33
2019-01-11T19:41:01.326Z,266.10
2019-01-11T19:43:28.674Z,251.83
2019-01-11T19:45:56.419Z,268.60
2019-01-11T19:48:24.176Z,250.13
2019-01-11T19:50:51.657Z,251.80
2019-01-11T19:53:19.126Z,241.20
2019-01-11T19:55:46.808Z,253.20
2019-01-11T19:58:14.478Z,221.27
2019-01-11T20:00:42.082Z,267.07
2019-01-11T20:03:09.807Z,257.97
2019-01-11T20:05:37.405Z,235.97
2019-01-11T20:08:05.029Z,234.70
2019-01-11T20:10:33.388Z,241.43
2019-01-11T20:13:01.384Z,250.20
2019-01-11T20:15:29.543Z,245.40
2019-01-11T20:17:57.357Z,215.80
2019-01-11T20:20:25.482Z,217.47
2019-01-11T20:23:01.899Z,223.83
2019-01-11T20:25:24.880Z,218.93
2019-01-11T20:27:52.538Z,223.83
2019-01-11T20:30:23.471Z,209.87
2019-01-11T20:32:52.353Z,226.60
2019-01-11T20:35:20.260Z,222.10
2019-01-11T20:37:48.693Z,235.30
2019-01-11T20:40:16.860Z,231.70
2019-01-11T20:42:45.804Z,239.37
2019-01-11T20:45:16.687Z,222.57
2019-01-11T20:47:44.439Z,238.97
2019-01-11T20:50:15.902Z,211.43
2019-01-11T20:52:43.698Z,238.23
2019-01-11T20:55:11.287Z,241.33
2019-01-11T20:57:38.978Z,263.03
2019-01-11T21:00:13.407Z,229.90
2019-01-11T21:02:41.059Z,236.63
2019-01-11T21:05:09.034Z,230.37
2019-01-11T21:07:36.729Z,229.37
2019-01-11T21:10:05.439Z,230.97
2019-01-11T21:12:33.116Z,238.50
2019-01-11T21:15:01.951Z,234.07
2019-01-11T21:17:29.943Z,218.20
2019-01-11T21:19:57.562Z,216.70
2019-01-11T21:22:25.341Z,232.40
2019-01-11T21:24:59.888Z,204.40
2019-01-11T21:27:23.430Z,226.63
2019-01-11T21:29:51.095Z,217.93
2019-01-11T21:32:18.935Z,208.20
2019-01-11T21:34:46.611Z,186.50
2019-01-11T21:37:14.117Z,198.30
2019-01-11T21:39:41.903Z,179.70
2019-01-11T21:42:09.625Z,190.50
2019-01-11T21:44:37.380Z,179.83
2019-01-11T21:47:06.171Z,169.10
2019-01-11T21:49:33.827Z,165.40
2019-01-11T21:52:01.619Z,154.10
2019-01-11T21:54:30.457Z,158.03
2019-01-11T21:56:58.218Z,160.67
2019-01-11T21:59:25.881Z,152.67
2019-01-11T22:01:53.660Z,156.00
2019-01-11T22:04:21.337Z,160.97
2019-01-11T22:06:49.091Z,145.90
2019-01-11T22:09:16.589Z,147.60
2019-01-11T22:11:44.224Z,144.30
2019-01-11T22:14:11.839Z,154.13
2019-01-11T22:16:39.738Z,155.03
2019-01-11T22:19:07.409Z,161.63
2019-01-11T22:21:35.042Z,165.20
2019-01-11T22:24:03.296Z,161.77
2019-01-11T22:26:31.169Z,163.30
2019-01-11T22:28:58.972Z,160.33
2019-01-11T22:31:26.709Z,167.40
2019-01-11T22:33:54.194Z,153.00
2019-01-11T22:36:21.902Z,158.70
2019-01-11T22:38:49.333Z,146.60
2019-01-11T22:41:17.921Z,157.60
2019-01-11T22:43:45.483Z,146.23
2019-01-11T22:46:13.140Z,148.13
2019-01-11T22:48:42.028Z,158.87
2019-01-11T22:51:09.733Z,148.33
2019-01-11T22:53:37.384Z,156.43
2019-01-11T22:56:05.171Z,144.60
2019-01-11T22:58:32.889Z,154.10
2019-01-11T23:01:43.743Z,152.37
2019-01-11T23:04:11.229Z,146.53
2019-01-11T23:07:26.142Z,146.33
2019-01-11T23:10:19.865Z,145.53
2019-01-11T23:13:06.711Z,157.77
2019-01-11T23:15:41.062Z,149.10
2019-01-11T23:18:23.802Z,154.07
2019-01-11T23:21:03.855Z,154.03
2019-01-11T23:23:31.555Z,150.17
2019-01-11T23:25:59.025Z,136.73
2019-01-11T23:28:26.732Z,162.17
2019-01-11T23:30:54.295Z,140.77
2019-01-11T23:33:21.994Z,150.13
2019-01-11T23:35:50.504Z,142.60
2019-01-11T23:38:18.097Z,152.90
2019-01-11T23:40:45.585Z,143.60
2019-01-11T23:43:13.096Z,142.60
2019-01-11T23:45:40.739Z,142.93
2019-01-11T23:48:08.409Z,146.93
2019-01-11T23:50:36.005Z,139.20
2019-01-11T23:53:03.891Z,145.40
2019-01-11T23:55:31.561Z,148.50
2019-01-11T23:57:59.113Z,154.30
